Terminal Aerodrome Forecast
Issued by NWS

Home | Current Version | Previous Version | Text Only | Print | Product List | Glossary Off
Versions: 1 2 3 4 5 6 7 8 9 10 11 12 13 14 15 16 17 18

000
FTUS43 KGRB 211542 AAB
TAFATW
TAF AMD
KATW 211542Z 2116/2212 18012KT 5SM -TSRA SCT050 BKN100CB
     FM211700 23012KT P6SM OVC100
     FM212100 24012KT P6SM SCT040
     FM220800 27004KT 4SM BR SCT025
     FM221000 29004KT 2SM BR SCT015=

USA.gov is the U.S. government's official web portal to all federal, state and local government web resources and services.